sensor_id;sensor_type;location;lat;lon;timestamp;temperature;humidity
42261;DHT22;27926;48.062;7.474;2023-04-24T00:01:34;11.20;99.90
42261;DHT22;27926;48.062;7.474;2023-04-24T00:04:01;11.20;99.90
42261;DHT22;27926;48.062;7.474;2023-04-24T00:06:26;11.20;99.90
42261;DHT22;27926;48.062;7.474;2023-04-24T00:08:57;11.20;99.90
42261;DHT22;27926;48.062;7.474;2023-04-24T00:11:22;11.30;99.90
42261;DHT22;27926;48.062;7.474;2023-04-24T00:13:46;11.30;99.90
42261;DHT22;27926;48.062;7.474;2023-04-24T00:16:11;11.20;99.90
42261;DHT22;27926;48.062;7.474;2023-04-24T00:18:35;11.50;99.90
42261;DHT22;27926;48.062;7.474;2023-04-24T00:21:00;11.30;99.90
42261;DHT22;27926;48.062;7.474;2023-04-24T00:23:24;11.30;99.90
42261;DHT22;27926;48.062;7.474;2023-04-24T00:25:49;11.30;99.90
42261;DHT22;27926;48.062;7.474;2023-04-24T00:28:14;11.30;99.90
42261;DHT22;27926;48.062;7.474;2023-04-24T00:30:38;11.30;99.90
42261;DHT22;27926;48.062;7.474;2023-04-24T00:33:03;11.30;99.90
42261;DHT22;27926;48.062;7.474;2023-04-24T00:35:27;11.20;99.90
42261;DHT22;27926;48.062;7.474;2023-04-24T00:37:52;11.20;99.90
42261;DHT22;27926;48.062;7.474;2023-04-24T00:40:17;11.10;99.90
42261;DHT22;27926;48.062;7.474;2023-04-24T00:42:41;11.10;99.90
42261;DHT22;27926;48.062;7.474;2023-04-24T00:45:07;11.20;99.90
42261;DHT22;27926;48.062;7.474;2023-04-24T00:47:33;11.10;99.90
42261;DHT22;27926;48.062;7.474;2023-04-24T00:49:57;11.10;99.90
42261;DHT22;27926;48.062;7.474;2023-04-24T00:52:22;11.00;99.90
42261;DHT22;27926;48.062;7.474;2023-04-24T00:54:48;11.00;99.90
42261;DHT22;27926;48.062;7.474;2023-04-24T00:57:14;11.10;99.90
42261;DHT22;27926;48.062;7.474;2023-04-24T00:59:39;10.90;99.90
42261;DHT22;27926;48.062;7.474;2023-04-24T01:02:05;11.00;99.90
42261;DHT22;27926;48.062;7.474;2023-04-24T01:04:30;10.90;99.90
42261;DHT22;27926;48.062;7.474;2023-04-24T01:06:55;11.00;99.90
42261;DHT22;27926;48.062;7.474;2023-04-24T01:09:22;11.00;99.90
42261;DHT22;27926;48.062;7.474;2023-04-24T01:11:47;11.00;99.90
42261;DHT22;27926;48.062;7.474;2023-04-24T01:14:12;11.10;99.90
42261;DHT22;27926;48.062;7.474;2023-04-24T01:16:36;11.10;99.90
42261;DHT22;27926;48.062;7.474;2023-04-24T01:19:02;11.00;99.90
42261;DHT22;27926;48.062;7.474;2023-04-24T01:21:27;11.00;99.90
42261;DHT22;27926;48.062;7.474;2023-04-24T01:23:53;11.00;99.90
42261;DHT22;27926;48.062;7.474;2023-04-24T01:26:19;11.10;99.90
42261;DHT22;27926;48.062;7.474;2023-04-24T01:28:44;11.10;99.90
42261;DHT22;27926;48.062;7.474;2023-04-24T01:31:09;11.00;99.90
42261;DHT22;27926;48.062;7.474;2023-04-24T01:33:34;11.00;99.90
42261;DHT22;27926;48.062;7.474;2023-04-24T01:35:59;11.00;99.90
42261;DHT22;27926;48.062;7.474;2023-04-24T01:38:24;11.00;99.90
42261;DHT22;27926;48.062;7.474;2023-04-24T01:40:49;11.00;99.90
42261;DHT22;27926;48.062;7.474;2023-04-24T01:43:15;11.10;99.90
42261;DHT22;27926;48.062;7.474;2023-04-24T01:45:41;11.10;99.90
42261;DHT22;27926;48.062;7.474;2023-04-24T01:48:05;11.10;99.90
42261;DHT22;27926;48.062;7.474;2023-04-24T01:50:30;11.10;99.90
42261;DHT22;27926;48.062;7.474;2023-04-24T01:52:54;11.10;99.90
42261;DHT22;27926;48.062;7.474;2023-04-24T01:55:19;11.10;99.90
42261;DHT22;27926;48.062;7.474;2023-04-24T01:57:44;11.10;99.90
42261;DHT22;27926;48.062;7.474;2023-04-24T02:00:09;11.10;99.90
42261;DHT22;27926;48.062;7.474;2023-04-24T02:02:35;11.00;99.90
42261;DHT22;27926;48.062;7.474;2023-04-24T02:05:00;10.90;99.90
42261;DHT22;27926;48.062;7.474;2023-04-24T02:07:25;10.90;99.90
42261;DHT22;27926;48.062;7.474;2023-04-24T02:09:49;10.70;99.90
42261;DHT22;27926;48.062;7.474;2023-04-24T02:12:17;10.70;99.90
42261;DHT22;27926;48.062;7.474;2023-04-24T02:14:41;10.60;99.90
42261;DHT22;27926;48.062;7.474;2023-04-24T02:17:06;10.60;99.90
42261;DHT22;27926;48.062;7.474;2023-04-24T02:19:32;10.60;99.90
42261;DHT22;27926;48.062;7.474;2023-04-24T02:21:57;10.60;99.90
42261;DHT22;27926;48.062;7.474;2023-04-24T02:24:21;10.60;99.90
42261;DHT22;27926;48.062;7.474;2023-04-24T02:26:46;10.60;99.90
42261;DHT22;27926;48.062;7.474;2023-04-24T02:29:10;10.60;99.90
42261;DHT22;27926;48.062;7.474;2023-04-24T02:31:35;10.60;99.90
42261;DHT22;27926;48.062;7.474;2023-04-24T02:34:00;10.60;99.90
42261;DHT22;27926;48.062;7.474;2023-04-24T02:36:24;10.60;99.90
42261;DHT22;27926;48.062;7.474;2023-04-24T02:38:49;10.60;99.90
42261;DHT22;27926;48.062;7.474;2023-04-24T02:41:14;10.60;99.90
42261;DHT22;27926;48.062;7.474;2023-04-24T02:43:38;10.60;99.90
42261;DHT22;27926;48.062;7.474;2023-04-24T02:46:03;10.60;99.90
42261;DHT22;27926;48.062;7.474;2023-04-24T02:48:28;10.60;99.90
42261;DHT22;27926;48.062;7.474;2023-04-24T02:50:52;10.60;99.90
42261;DHT22;27926;48.062;7.474;2023-04-24T02:53:17;10.60;99.90
42261;DHT22;27926;48.062;7.474;2023-04-24T02:55:42;10.60;99.90
42261;DHT22;27926;48.062;7.474;2023-04-24T02:58:06;10.70;99.90
42261;DHT22;27926;48.062;7.474;2023-04-24T03:00:31;10.60;99.90
42261;DHT22;27926;48.062;7.474;2023-04-24T03:02:55;10.70;99.90
42261;DHT22;27926;48.062;7.474;2023-04-24T03:05:20;10.70;99.90
42261;DHT22;27926;48.062;7.474;2023-04-24T03:07:45;10.70;99.90
42261;DHT22;27926;48.062;7.474;2023-04-24T03:10:10;10.80;99.90
42261;DHT22;27926;48.062;7.474;2023-04-24T03:12:35;10.80;99.90
42261;DHT22;27926;48.062;7.474;2023-04-24T03:14:59;10.80;99.90
42261;DHT22;27926;48.062;7.474;2023-04-24T03:17:24;10.80;99.90
42261;DHT22;27926;48.062;7.474;2023-04-24T03:19:49;10.80;99.90
42261;DHT22;27926;48.062;7.474;2023-04-24T03:22:13;10.80;99.90
42261;DHT22;27926;48.062;7.474;2023-04-24T03:24:38;10.80;99.90
42261;DHT22;27926;48.062;7.474;2023-04-24T03:27:03;10.70;99.90
42261;DHT22;27926;48.062;7.474;2023-04-24T03:29:27;10.90;99.90
42261;DHT22;27926;48.062;7.474;2023-04-24T03:31:52;10.70;99.90
42261;DHT22;27926;48.062;7.474;2023-04-24T03:34:16;10.70;99.90
42261;DHT22;27926;48.062;7.474;2023-04-24T03:36:41;10.60;99.90
42261;DHT22;27926;48.062;7.474;2023-04-24T03:39:09;10.60;99.90
42261;DHT22;27926;48.062;7.474;2023-04-24T03:41:33;11.30;99.90
42261;DHT22;27926;48.062;7.474;2023-04-24T03:43:58;10.50;99.90
42261;DHT22;27926;48.062;7.474;2023-04-24T03:46:22;10.50;99.90
42261;DHT22;27926;48.062;7.474;2023-04-24T03:48:47;10.40;99.90
42261;DHT22;27926;48.062;7.474;2023-04-24T03:51:12;10.30;99.90
42261;DHT22;27926;48.062;7.474;2023-04-24T03:53:36;10.30;99.90
42261;DHT22;27926;48.062;7.474;2023-04-24T03:56:01;10.30;99.90
42261;DHT22;27926;48.062;7.474;2023-04-24T03:58:25;10.30;99.90
42261;DHT22;27926;48.062;7.474;2023-04-24T04:00:50;10.20;99.90
42261;DHT22;27926;48.062;7.474;2023-04-24T04:03:15;10.20;99.90
42261;DHT22;27926;48.062;7.474;2023-04-24T04:05:40;10.20;99.90
42261;DHT22;27926;48.062;7.474;2023-04-24T04:08:05;10.20;99.90
42261;DHT22;27926;48.062;7.474;2023-04-24T04:10:30;10.20;99.90
42261;DHT22;27926;48.062;7.474;2023-04-24T04:12:54;10.20;99.90
42261;DHT22;27926;48.062;7.474;2023-04-24T04:15:19;10.20;99.90
42261;DHT22;27926;48.062;7.474;2023-04-24T04:17:43;10.10;99.90
42261;DHT22;27926;48.062;7.474;2023-04-24T04:20:10;10.10;99.90
42261;DHT22;27926;48.062;7.474;2023-04-24T04:22:35;10.10;99.90
42261;DHT22;27926;48.062;7.474;2023-04-24T04:25:00;10.20;99.90
42261;DHT22;27926;48.062;7.474;2023-04-24T04:27:27;10.30;99.90
42261;DHT22;27926;48.062;7.474;2023-04-24T04:29:53;11.70;99.90
42261;DHT22;27926;48.062;7.474;2023-04-24T04:32:18;10.20;99.90
42261;DHT22;27926;48.062;7.474;2023-04-24T04:34:42;10.30;99.90
42261;DHT22;27926;48.062;7.474;2023-04-24T04:37:09;10.20;99.90
42261;DHT22;27926;48.062;7.474;2023-04-24T04:39:35;10.20;99.90
42261;DHT22;27926;48.062;7.474;2023-04-24T04:41:59;10.20;99.90
42261;DHT22;27926;48.062;7.474;2023-04-24T04:44:24;10.30;99.90
42261;DHT22;27926;48.062;7.474;2023-04-24T04:46:49;10.30;99.90
42261;DHT22;27926;48.062;7.474;2023-04-24T04:49:14;10.50;99.90
42261;DHT22;27926;48.062;7.474;2023-04-24T04:51:41;10.40;99.90
42261;DHT22;27926;48.062;7.474;2023-04-24T04:54:05;10.30;99.90
42261;DHT22;27926;48.062;7.474;2023-04-24T04:56:30;10.30;99.90
42261;DHT22;27926;48.062;7.474;2023-04-24T04:58:54;10.40;99.90
42261;DHT22;27926;48.062;7.474;2023-04-24T05:01:19;10.30;99.90
42261;DHT22;27926;48.062;7.474;2023-04-24T05:03:47;10.30;99.90
42261;DHT22;27926;48.062;7.474;2023-04-24T05:06:11;10.30;99.90
42261;DHT22;27926;48.062;7.474;2023-04-24T05:08:36;10.30;99.90
42261;DHT22;27926;48.062;7.474;2023-04-24T05:11:00;10.30;99.90
42261;DHT22;27926;48.062;7.474;2023-04-24T05:13:25;10.40;99.90
42261;DHT22;27926;48.062;7.474;2023-04-24T05:15:50;10.20;99.90
42261;DHT22;27926;48.062;7.474;2023-04-24T05:18:14;10.40;99.90
42261;DHT22;27926;48.062;7.474;2023-04-24T05:20:39;10.30;99.90
42261;DHT22;27926;48.062;7.474;2023-04-24T05:23:04;10.30;99.90
42261;DHT22;27926;48.062;7.474;2023-04-24T05:25:29;10.40;99.90
42261;DHT22;27926;48.062;7.474;2023-04-24T05:27:56;10.30;99.90
42261;DHT22;27926;48.062;7.474;2023-04-24T05:30:21;10.40;99.90
42261;DHT22;27926;48.062;7.474;2023-04-24T05:32:45;10.40;99.90
42261;DHT22;27926;48.062;7.474;2023-04-24T05:35:10;10.40;99.90
42261;DHT22;27926;48.062;7.474;2023-04-24T05:37:35;10.40;99.90
42261;DHT22;27926;48.062;7.474;2023-04-24T05:39:59;10.40;99.90
42261;DHT22;27926;48.062;7.474;2023-04-24T05:42:24;10.50;99.90
42261;DHT22;27926;48.062;7.474;2023-04-24T05:44:49;10.40;99.90
42261;DHT22;27926;48.062;7.474;2023-04-24T05:47:14;10.40;99.90
42261;DHT22;27926;48.062;7.474;2023-04-24T05:49:38;10.40;99.90
42261;DHT22;27926;48.062;7.474;2023-04-24T05:52:03;10.40;99.90
42261;DHT22;27926;48.062;7.474;2023-04-24T05:54:29;10.40;99.90
42261;DHT22;27926;48.062;7.474;2023-04-24T05:56:54;10.60;99.90
42261;DHT22;27926;48.062;7.474;2023-04-24T05:59:19;10.60;99.90
42261;DHT22;27926;48.062;7.474;2023-04-24T06:01:44;10.60;99.90
42261;DHT22;27926;48.062;7.474;2023-04-24T06:04:09;10.60;99.90
42261;DHT22;27926;48.062;7.474;2023-04-24T06:06:34;10.60;99.90
42261;DHT22;27926;48.062;7.474;2023-04-24T06:08:59;10.60;99.90
42261;DHT22;27926;48.062;7.474;2023-04-24T06:11:24;10.60;99.90
42261;DHT22;27926;48.062;7.474;2023-04-24T06:13:49;10.60;99.90
42261;DHT22;27926;48.062;7.474;2023-04-24T06:16:13;10.50;99.90
42261;DHT22;27926;48.062;7.474;2023-04-24T06:18:38;10.50;99.90
42261;DHT22;27926;48.062;7.474;2023-04-24T06:21:03;10.50;99.90
42261;DHT22;27926;48.062;7.474;2023-04-24T06:23:28;10.50;99.90
42261;DHT22;27926;48.062;7.474;2023-04-24T06:25:53;10.60;99.90
42261;DHT22;27926;48.062;7.474;2023-04-24T06:28:18;10.70;99.90
42261;DHT22;27926;48.062;7.474;2023-04-24T06:30:43;10.60;99.90
42261;DHT22;27926;48.062;7.474;2023-04-24T06:33:07;10.60;99.90
42261;DHT22;27926;48.062;7.474;2023-04-24T06:35:32;10.80;99.90
42261;DHT22;27926;48.062;7.474;2023-04-24T06:37:57;11.50;99.90
42261;DHT22;27926;48.062;7.474;2023-04-24T06:40:21;12.30;99.90
42261;DHT22;27926;48.062;7.474;2023-04-24T06:42:46;13.00;99.90
42261;DHT22;27926;48.062;7.474;2023-04-24T06:45:10;13.90;99.90
42261;DHT22;27926;48.062;7.474;2023-04-24T06:47:35;14.60;99.90
42261;DHT22;27926;48.062;7.474;2023-04-24T06:50:00;15.10;99.90
42261;DHT22;27926;48.062;7.474;2023-04-24T06:52:24;15.40;99.90
42261;DHT22;27926;48.062;7.474;2023-04-24T06:54:49;15.60;99.90
42261;DHT22;27926;48.062;7.474;2023-04-24T06:57:14;15.50;99.90
42261;DHT22;27926;48.062;7.474;2023-04-24T06:59:40;15.40;99.90
42261;DHT22;27926;48.062;7.474;2023-04-24T07:02:05;14.80;99.90
42261;DHT22;27926;48.062;7.474;2023-04-24T07:04:30;14.30;99.90
42261;DHT22;27926;48.062;7.474;2023-04-24T07:06:55;13.90;99.90
42261;DHT22;27926;48.062;7.474;2023-04-24T07:09:22;13.60;99.90
42261;DHT22;27926;48.062;7.474;2023-04-24T07:11:47;13.40;99.90
42261;DHT22;27926;48.062;7.474;2023-04-24T07:14:13;13.20;99.90
42261;DHT22;27926;48.062;7.474;2023-04-24T07:16:38;13.10;99.90
42261;DHT22;27926;48.062;7.474;2023-04-24T07:19:02;12.70;99.90
42261;DHT22;27926;48.062;7.474;2023-04-24T07:21:27;12.40;99.90
42261;DHT22;27926;48.062;7.474;2023-04-24T07:23:52;12.40;99.90
42261;DHT22;27926;48.062;7.474;2023-04-24T07:26:16;12.40;99.90
42261;DHT22;27926;48.062;7.474;2023-04-24T07:28:41;12.40;99.90
42261;DHT22;27926;48.062;7.474;2023-04-24T07:31:06;12.40;99.90
42261;DHT22;27926;48.062;7.474;2023-04-24T07:33:30;12.30;99.90
42261;DHT22;27926;48.062;7.474;2023-04-24T07:35:55;12.30;99.90
42261;DHT22;27926;48.062;7.474;2023-04-24T07:38:20;12.30;99.90
42261;DHT22;27926;48.062;7.474;2023-04-24T07:40:46;12.20;99.90
42261;DHT22;27926;48.062;7.474;2023-04-24T07:43:13;12.30;99.90
42261;DHT22;27926;48.062;7.474;2023-04-24T07:45:38;12.30;99.90
42261;DHT22;27926;48.062;7.474;2023-04-24T07:48:04;12.40;99.90
42261;DHT22;27926;48.062;7.474;2023-04-24T07:50:28;12.40;99.90
42261;DHT22;27926;48.062;7.474;2023-04-24T07:52:53;12.50;99.90
42261;DHT22;27926;48.062;7.474;2023-04-24T07:55:17;12.50;99.90
42261;DHT22;27926;48.062;7.474;2023-04-24T07:57:43;12.40;99.90
42261;DHT22;27926;48.062;7.474;2023-04-24T08:00:08;12.40;99.90
42261;DHT22;27926;48.062;7.474;2023-04-24T08:02:33;12.50;99.90
42261;DHT22;27926;48.062;7.474;2023-04-24T08:04:58;12.50;99.90
42261;DHT22;27926;48.062;7.474;2023-04-24T08:07:23;12.50;99.90
42261;DHT22;27926;48.062;7.474;2023-04-24T08:09:48;12.40;99.90
42261;DHT22;27926;48.062;7.474;2023-04-24T08:12:13;12.30;99.80
42261;DHT22;27926;48.062;7.474;2023-04-24T08:14:37;12.20;99.80
42261;DHT22;27926;48.062;7.474;2023-04-24T08:17:02;12.10;99.60
42261;DHT22;27926;48.062;7.474;2023-04-24T08:19:27;12.00;99.70
42261;DHT22;27926;48.062;7.474;2023-04-24T08:21:52;11.80;98.70
42261;DHT22;27926;48.062;7.474;2023-04-24T08:24:16;11.70;98.50
42261;DHT22;27926;48.062;7.474;2023-04-24T08:26:41;11.60;98.90
42261;DHT22;27926;48.062;7.474;2023-04-24T08:29:06;11.80;98.40
42261;DHT22;27926;48.062;7.474;2023-04-24T08:31:31;11.70;98.30
42261;DHT22;27926;48.062;7.474;2023-04-24T08:33:55;11.80;98.90
42261;DHT22;27926;48.062;7.474;2023-04-24T08:36:20;11.80;97.90
42261;DHT22;27926;48.062;7.474;2023-04-24T08:38:44;12.10;98.40
42261;DHT22;27926;48.062;7.474;2023-04-24T08:41:11;11.90;98.50
42261;DHT22;27926;48.062;7.474;2023-04-24T08:43:37;11.90;98.40
42261;DHT22;27926;48.062;7.474;2023-04-24T08:46:04;11.80;98.50
42261;DHT22;27926;48.062;7.474;2023-04-24T08:48:28;11.80;98.50
42261;DHT22;27926;48.062;7.474;2023-04-24T08:50:53;11.80;98.20
42261;DHT22;27926;48.062;7.474;2023-04-24T08:53:18;12.00;97.70
42261;DHT22;27926;48.062;7.474;2023-04-24T08:55:47;11.80;97.50
42261;DHT22;27926;48.062;7.474;2023-04-24T08:58:12;11.90;97.90
42261;DHT22;27926;48.062;7.474;2023-04-24T09:00:39;12.00;97.70
42261;DHT22;27926;48.062;7.474;2023-04-24T09:03:03;12.10;97.60
42261;DHT22;27926;48.062;7.474;2023-04-24T09:05:29;12.20;98.00
42261;DHT22;27926;48.062;7.474;2023-04-24T09:07:56;12.40;98.00
42261;DHT22;27926;48.062;7.474;2023-04-24T09:10:22;12.40;96.70
42261;DHT22;27926;48.062;7.474;2023-04-24T09:12:47;12.50;97.30
42261;DHT22;27926;48.062;7.474;2023-04-24T09:15:12;12.60;97.10
42261;DHT22;27926;48.062;7.474;2023-04-24T09:17:37;12.70;97.40
42261;DHT22;27926;48.062;7.474;2023-04-24T09:20:02;12.60;96.60
42261;DHT22;27926;48.062;7.474;2023-04-24T09:22:30;12.70;96.10
42261;DHT22;27926;48.062;7.474;2023-04-24T09:25:07;12.90;96.00
42261;DHT22;27926;48.062;7.474;2023-04-24T09:27:34;12.90;96.70
42261;DHT22;27926;48.062;7.474;2023-04-24T09:29:59;12.90;96.60
42261;DHT22;27926;48.062;7.474;2023-04-24T09:32:24;13.00;96.30
42261;DHT22;27926;48.062;7.474;2023-04-24T09:35:11;13.20;96.70
42261;DHT22;27926;48.062;7.474;2023-04-24T09:37:41;13.40;96.10
42261;DHT22;27926;48.062;7.474;2023-04-24T09:40:19;13.30;95.60
42261;DHT22;27926;48.062;7.474;2023-04-24T09:42:56;13.50;95.30
42261;DHT22;27926;48.062;7.474;2023-04-24T09:45:40;13.60;95.30
42261;DHT22;27926;48.062;7.474;2023-04-24T09:48:05;13.70;96.10
42261;DHT22;27926;48.062;7.474;2023-04-24T09:50:31;13.70;94.70
42261;DHT22;27926;48.062;7.474;2023-04-24T09:52:58;13.60;95.40
42261;DHT22;27926;48.062;7.474;2023-04-24T09:55:24;13.40;94.70
42261;DHT22;27926;48.062;7.474;2023-04-24T09:57:54;13.50;94.30
42261;DHT22;27926;48.062;7.474;2023-04-24T10:02:49;13.40;95.60
42261;DHT22;27926;48.062;7.474;2023-04-24T10:05:15;13.50;94.70
42261;DHT22;27926;48.062;7.474;2023-04-24T10:07:40;13.40;95.90
42261;DHT22;27926;48.062;7.474;2023-04-24T10:10:05;13.40;96.00
42261;DHT22;27926;48.062;7.474;2023-04-24T10:12:30;13.50;96.10
42261;DHT22;27926;48.062;7.474;2023-04-24T10:14:55;13.40;96.20
42261;DHT22;27926;48.062;7.474;2023-04-24T10:17:21;13.30;96.00
42261;DHT22;27926;48.062;7.474;2023-04-24T10:19:46;13.30;95.90
42261;DHT22;27926;48.062;7.474;2023-04-24T10:22:11;13.30;95.70
42261;DHT22;27926;48.062;7.474;2023-04-24T10:24:36;13.30;95.70
42261;DHT22;27926;48.062;7.474;2023-04-24T10:27:03;13.30;95.70
42261;DHT22;27926;48.062;7.474;2023-04-24T10:29:30;13.40;95.80
42261;DHT22;27926;48.062;7.474;2023-04-24T10:31:55;13.40;94.50
42261;DHT22;27926;48.062;7.474;2023-04-24T10:34:20;13.50;94.10
42261;DHT22;27926;48.062;7.474;2023-04-24T10:36:50;13.40;94.60
42261;DHT22;27926;48.062;7.474;2023-04-24T10:39:16;13.40;94.60
42261;DHT22;27926;48.062;7.474;2023-04-24T10:41:41;13.50;94.50
42261;DHT22;27926;48.062;7.474;2023-04-24T10:46:34;13.50;94.40
42261;DHT22;27926;48.062;7.474;2023-04-24T10:48:59;13.60;94.20
42261;DHT22;27926;48.062;7.474;2023-04-24T10:51:45;13.80;93.90
42261;DHT22;27926;48.062;7.474;2023-04-24T10:54:43;14.00;93.40
42261;DHT22;27926;48.062;7.474;2023-04-24T10:59:42;14.20;93.10
42261;DHT22;27926;48.062;7.474;2023-04-24T11:02:08;14.10;92.60
42261;DHT22;27926;48.062;7.474;2023-04-24T11:04:32;14.00;92.60
42261;DHT22;27926;48.062;7.474;2023-04-24T11:06:58;13.80;93.40
42261;DHT22;27926;48.062;7.474;2023-04-24T11:09:22;13.80;93.70
42261;DHT22;27926;48.062;7.474;2023-04-24T11:11:50;13.90;94.10
42261;DHT22;27926;48.062;7.474;2023-04-24T11:14:15;14.10;93.90
42261;DHT22;27926;48.062;7.474;2023-04-24T11:16:45;14.20;94.10
42261;DHT22;27926;48.062;7.474;2023-04-24T11:22:01;14.80;95.00
42261;DHT22;27926;48.062;7.474;2023-04-24T11:27:15;14.80;93.20
42261;DHT22;27926;48.062;7.474;2023-04-24T11:32:22;14.60;94.20
42261;DHT22;27926;48.062;7.474;2023-04-24T11:34:59;14.20;95.20
42261;DHT22;27926;48.062;7.474;2023-04-24T11:37:33;13.90;94.30
42261;DHT22;27926;48.062;7.474;2023-04-24T11:39:58;13.80;95.10
42261;DHT22;27926;48.062;7.474;2023-04-24T11:42:23;13.70;95.60
42261;DHT22;27926;48.062;7.474;2023-04-24T11:44:51;13.90;95.30
42261;DHT22;27926;48.062;7.474;2023-04-24T11:47:16;14.40;95.40
42261;DHT22;27926;48.062;7.474;2023-04-24T11:49:41;15.10;94.90
42261;DHT22;27926;48.062;7.474;2023-04-24T11:52:05;15.20;92.90
42261;DHT22;27926;48.062;7.474;2023-04-24T11:54:31;15.20;93.30
42261;DHT22;27926;48.062;7.474;2023-04-24T11:56:56;15.30;92.40
42261;DHT22;27926;48.062;7.474;2023-04-24T11:59:21;15.40;92.70
42261;DHT22;27926;48.062;7.474;2023-04-24T12:01:46;15.40;92.60
42261;DHT22;27926;48.062;7.474;2023-04-24T12:04:11;15.40;92.50
42261;DHT22;27926;48.062;7.474;2023-04-24T12:06:36;15.60;92.80
42261;DHT22;27926;48.062;7.474;2023-04-24T12:09:00;16.00;92.30
42261;DHT22;27926;48.062;7.474;2023-04-24T12:11:25;16.30;91.50
42261;DHT22;27926;48.062;7.474;2023-04-24T12:13:50;16.50;91.20
42261;DHT22;27926;48.062;7.474;2023-04-24T12:16:14;16.50;91.40
42261;DHT22;27926;48.062;7.474;2023-04-24T12:18:43;16.80;91.90
42261;DHT22;27926;48.062;7.474;2023-04-24T12:21:22;17.10;90.90
42261;DHT22;27926;48.062;7.474;2023-04-24T12:23:47;17.10;90.80
42261;DHT22;27926;48.062;7.474;2023-04-24T12:26:16;17.00;90.60
42261;DHT22;27926;48.062;7.474;2023-04-24T12:28:42;16.70;89.10
42261;DHT22;27926;48.062;7.474;2023-04-24T12:31:07;16.00;90.10
42261;DHT22;27926;48.062;7.474;2023-04-24T12:33:35;15.70;91.40
42261;DHT22;27926;48.062;7.474;2023-04-24T12:36:00;15.60;91.30
42261;DHT22;27926;48.062;7.474;2023-04-24T12:38:26;15.60;91.70
42261;DHT22;27926;48.062;7.474;2023-04-24T12:41:07;15.50;92.20
42261;DHT22;27926;48.062;7.474;2023-04-24T12:43:32;15.60;91.90
42261;DHT22;27926;48.062;7.474;2023-04-24T12:45:56;15.60;90.40
42261;DHT22;27926;48.062;7.474;2023-04-24T12:48:21;15.60;90.70
42261;DHT22;27926;48.062;7.474;2023-04-24T12:50:46;15.50;90.20
42261;DHT22;27926;48.062;7.474;2023-04-24T12:53:11;15.60;89.40
42261;DHT22;27926;48.062;7.474;2023-04-24T12:55:36;15.50;89.00
42261;DHT22;27926;48.062;7.474;2023-04-24T12:58:01;15.40;90.00
42261;DHT22;27926;48.062;7.474;2023-04-24T13:00:27;15.40;90.40
42261;DHT22;27926;48.062;7.474;2023-04-24T13:02:52;15.50;91.20
42261;DHT22;27926;48.062;7.474;2023-04-24T13:05:16;15.70;91.20
42261;DHT22;27926;48.062;7.474;2023-04-24T13:07:41;15.60;89.60
42261;DHT22;27926;48.062;7.474;2023-04-24T13:10:09;15.60;90.40
42261;DHT22;27926;48.062;7.474;2023-04-24T13:12:35;15.60;90.10
42261;DHT22;27926;48.062;7.474;2023-04-24T13:14:59;15.50;90.30
42261;DHT22;27926;48.062;7.474;2023-04-24T13:17:24;15.40;90.30
42261;DHT22;27926;48.062;7.474;2023-04-24T13:19:50;15.40;90.70
42261;DHT22;27926;48.062;7.474;2023-04-24T13:22:15;15.40;90.80
42261;DHT22;27926;48.062;7.474;2023-04-24T13:24:41;15.50;91.00
42261;DHT22;27926;48.062;7.474;2023-04-24T13:27:06;15.50;91.30
42261;DHT22;27926;48.062;7.474;2023-04-24T13:29:31;15.50;91.00
42261;DHT22;27926;48.062;7.474;2023-04-24T13:31:56;15.40;91.30
42261;DHT22;27926;48.062;7.474;2023-04-24T13:34:22;15.40;91.30
42261;DHT22;27926;48.062;7.474;2023-04-24T13:36:46;15.50;91.70
42261;DHT22;27926;48.062;7.474;2023-04-24T13:39:11;15.50;91.20
42261;DHT22;27926;48.062;7.474;2023-04-24T13:41:36;15.50;91.40
42261;DHT22;27926;48.062;7.474;2023-04-24T13:44:01;15.30;91.30
42261;DHT22;27926;48.062;7.474;2023-04-24T13:46:26;15.20;91.90
42261;DHT22;27926;48.062;7.474;2023-04-24T13:48:51;15.30;91.20
42261;DHT22;27926;48.062;7.474;2023-04-24T13:51:15;15.30;90.80
42261;DHT22;27926;48.062;7.474;2023-04-24T13:53:40;15.20;90.60
42261;DHT22;27926;48.062;7.474;2023-04-24T13:56:05;15.20;90.20
42261;DHT22;27926;48.062;7.474;2023-04-24T13:58:30;15.20;91.10
42261;DHT22;27926;48.062;7.474;2023-04-24T14:00:55;15.30;91.20
42261;DHT22;27926;48.062;7.474;2023-04-24T14:03:19;15.40;92.00
42261;DHT22;27926;48.062;7.474;2023-04-24T14:05:44;15.40;93.50
42261;DHT22;27926;48.062;7.474;2023-04-24T14:08:09;15.30;94.10
42261;DHT22;27926;48.062;7.474;2023-04-24T14:10:33;15.30;95.00
42261;DHT22;27926;48.062;7.474;2023-04-24T14:12:58;15.30;95.40
42261;DHT22;27926;48.062;7.474;2023-04-24T14:15:22;15.50;95.20
42261;DHT22;27926;48.062;7.474;2023-04-24T14:17:48;15.60;94.80
42261;DHT22;27926;48.062;7.474;2023-04-24T14:20:13;15.60;94.30
42261;DHT22;27926;48.062;7.474;2023-04-24T14:22:39;15.60;94.50
42261;DHT22;27926;48.062;7.474;2023-04-24T14:25:04;15.60;94.10
42261;DHT22;27926;48.062;7.474;2023-04-24T14:27:29;15.60;93.70
42261;DHT22;27926;48.062;7.474;2023-04-24T14:29:54;15.50;93.80
42261;DHT22;27926;48.062;7.474;2023-04-24T14:32:19;15.30;93.60
42261;DHT22;27926;48.062;7.474;2023-04-24T14:34:45;15.30;93.80
42261;DHT22;27926;48.062;7.474;2023-04-24T14:37:10;15.30;93.90
42261;DHT22;27926;48.062;7.474;2023-04-24T14:39:34;15.20;93.50
42261;DHT22;27926;48.062;7.474;2023-04-24T14:41:59;15.20;93.70
42261;DHT22;27926;48.062;7.474;2023-04-24T14:44:24;15.10;93.40
42261;DHT22;27926;48.062;7.474;2023-04-24T14:46:49;15.10;94.10
42261;DHT22;27926;48.062;7.474;2023-04-24T14:49:14;15.10;93.90
42261;DHT22;27926;48.062;7.474;2023-04-24T14:51:38;15.20;93.90
42261;DHT22;27926;48.062;7.474;2023-04-24T14:54:03;15.30;94.10
42261;DHT22;27926;48.062;7.474;2023-04-24T14:56:28;15.30;93.80
42261;DHT22;27926;48.062;7.474;2023-04-24T14:58:53;15.30;93.60
42261;DHT22;27926;48.062;7.474;2023-04-24T15:01:17;15.20;92.30
42261;DHT22;27926;48.062;7.474;2023-04-24T15:03:42;15.10;92.50
42261;DHT22;27926;48.062;7.474;2023-04-24T15:06:06;15.20;92.80
42261;DHT22;27926;48.062;7.474;2023-04-24T15:08:31;15.20;92.80
42261;DHT22;27926;48.062;7.474;2023-04-24T15:10:56;15.30;93.50
42261;DHT22;27926;48.062;7.474;2023-04-24T15:13:20;15.30;92.70
42261;DHT22;27926;48.062;7.474;2023-04-24T15:15:46;15.20;93.00
42261;DHT22;27926;48.062;7.474;2023-04-24T15:18:11;15.10;92.90
42261;DHT22;27926;48.062;7.474;2023-04-24T15:20:35;14.90;92.90
42261;DHT22;27926;48.062;7.474;2023-04-24T15:23:00;14.80;93.40
42261;DHT22;27926;48.062;7.474;2023-04-24T15:25:26;14.70;93.60
42261;DHT22;27926;48.062;7.474;2023-04-24T15:27:51;14.60;93.30
42261;DHT22;27926;48.062;7.474;2023-04-24T15:30:15;14.40;93.70
42261;DHT22;27926;48.062;7.474;2023-04-24T15:32:40;14.40;94.30
42261;DHT22;27926;48.062;7.474;2023-04-24T15:35:05;14.30;93.60